Saint George, Vermont
Current Conditions -  °F | °C
As of 5:54 PM on Monday 24 Nov 2014 (Local Time) from KBTV Reporting Station
Scattered Clouds Scattered Clouds  
Wind Chill: 65°   Ceiling: Unl
Heat Index: 65°   Visibility: 10mi
Dew Point: 54°   Wind: 18mph
Humidity: 68%   Direction: 180°S
Pressure: 29.37"   Gusts: 26mph
Location:  44.4289°N, 73.0926°W
Report Text: KBTV 242254Z 18016G23KT 10SM SCT090 18/12 A2937 RMK AO2 SLP945 T01830122
Loading
Personal Weather Stations






























Interactive Weather Map New forecast layout! Learn more

10-Day Weather Forecast

Advertisements
Track Severe Weather on mobile